createdAt,value
2017-09-29T00:00:52.762Z,30.05
2017-09-29T00:01:55.258Z,29.17
2017-09-29T00:02:57.718Z,30.10
2017-09-29T00:04:00.215Z,28.35
2017-09-29T00:05:02.703Z,31.45
2017-09-29T00:06:05.927Z,31.58
2017-09-29T00:07:08.398Z,33.10
2017-09-29T00:08:11.677Z,30.70
2017-09-29T00:09:14.685Z,31.20
2017-09-29T00:10:17.148Z,30.48
2017-09-29T00:11:19.610Z,31.17
2017-09-29T00:12:22.065Z,29.35
2017-09-29T00:13:24.538Z,28.70
2017-09-29T00:14:27.033Z,31.65
2017-09-29T00:15:29.545Z,31.12
2017-09-29T00:16:32.019Z,28.42
2017-09-29T00:17:34.611Z,30.80
2017-09-29T00:18:37.130Z,32.13
2017-09-29T00:19:39.627Z,30.70
2017-09-29T00:20:42.874Z,32.05
2017-09-29T00:21:45.402Z,29.95
2017-09-29T00:22:47.864Z,30.30
2017-09-29T00:23:50.328Z,30.05
2017-09-29T00:24:53.590Z,29.65
2017-09-29T00:25:56.118Z,30.30
2017-09-29T00:26:58.619Z,31.75
2017-09-29T00:28:01.079Z,29.90
2017-09-29T00:29:03.592Z,29.52
2017-09-29T00:30:06.852Z,30.10
2017-09-29T00:31:09.383Z,30.73
2017-09-29T00:32:11.849Z,30.50
2017-09-29T00:33:14.304Z,30.40
2017-09-29T00:34:17.558Z,30.67
2017-09-29T00:35:20.076Z,29.80
2017-09-29T00:36:22.632Z,31.00
2017-09-29T00:37:25.135Z,29.35
2017-09-29T00:38:27.662Z,30.65
2017-09-29T00:39:30.134Z,30.52
2017-09-29T00:40:32.594Z,30.48
2017-09-29T00:41:35.850Z,30.35
2017-09-29T00:42:38.311Z,30.10
2017-09-29T00:43:40.818Z,29.60
2017-09-29T00:44:43.288Z,29.45
2017-09-29T00:45:45.851Z,30.33
2017-09-29T00:46:48.318Z,30.40
2017-09-29T00:47:50.807Z,30.62
2017-09-29T00:48:53.299Z,29.92
2017-09-29T00:49:56.528Z,29.37
2017-09-29T00:50:59.026Z,30.50
2017-09-29T00:52:01.479Z,31.10
2017-09-29T00:53:03.955Z,30.67
2017-09-29T00:54:06.468Z,32.10
2017-09-29T00:55:08.970Z,31.58
2017-09-29T00:56:12.286Z,31.02
2017-09-29T00:57:14.774Z,30.30
2017-09-29T00:58:17.287Z,32.13
2017-09-29T00:59:19.798Z,29.87
2017-09-29T01:00:23.104Z,30.42
2017-09-29T01:01:25.675Z,30.10
2017-09-29T01:02:28.930Z,30.83
2017-09-29T01:03:31.400Z,31.45
2017-09-29T01:04:33.895Z,32.58
2017-09-29T01:05:36.360Z,31.92
2017-09-29T01:06:38.835Z,29.55
2017-09-29T01:07:41.302Z,29.58
2017-09-29T01:08:43.844Z,28.67
2017-09-29T01:09:46.309Z,30.75
2017-09-29T01:10:48.774Z,28.77
2017-09-29T01:11:51.237Z,30.73
2017-09-29T01:12:53.707Z,30.20
2017-09-29T01:13:56.194Z,30.48
2017-09-29T01:14:59.457Z,30.40
2017-09-29T01:16:01.931Z,31.75
2017-09-29T01:17:04.398Z,30.80
2017-09-29T01:18:06.910Z,29.95
2017-09-29T01:19:10.192Z,29.80
2017-09-29T01:20:12.691Z,30.37
2017-09-29T01:21:15.159Z,31.17
2017-09-29T01:22:17.615Z,31.12
2017-09-29T01:23:20.885Z,28.33
2017-09-29T01:24:24.114Z,31.65
2017-09-29T01:25:26.576Z,30.40
2017-09-29T01:26:29.105Z,30.17
2017-09-29T01:27:31.565Z,29.85
2017-09-29T01:28:34.846Z,29.48
2017-09-29T01:29:37.350Z,28.98
2017-09-29T01:30:40.595Z,29.98
2017-09-29T01:31:43.826Z,29.17
2017-09-29T01:32:47.062Z,29.33
2017-09-29T01:33:49.535Z,29.25
2017-09-29T01:34:52.020Z,28.60
2017-09-29T01:35:55.267Z,30.62
2017-09-29T01:36:58.529Z,29.87
2017-09-29T01:38:01.044Z,29.37
2017-09-29T01:39:04.278Z,29.35
2017-09-29T01:40:07.535Z,30.30
2017-09-29T01:41:10.021Z,27.62
2017-09-29T01:42:12.576Z,28.05
2017-09-29T01:43:15.812Z,29.58
2017-09-29T01:44:19.064Z,28.98
2017-09-29T01:45:22.286Z,29.35
2017-09-29T01:46:25.561Z,28.33
2017-09-29T01:47:28.066Z,29.25
2017-09-29T01:48:31.304Z,29.12
2017-09-29T01:49:34.579Z,27.87
2017-09-29T01:50:37.047Z,29.35
2017-09-29T01:51:39.535Z,29.95
2017-09-29T01:52:42.030Z,29.00
2017-09-29T01:53:45.267Z,28.05
2017-09-29T01:54:48.526Z,29.87
2017-09-29T01:55:51.008Z,27.52
2017-09-29T01:56:53.478Z,28.58
2017-09-29T01:57:55.952Z,27.30
2017-09-29T01:58:59.190Z,29.20
2017-09-29T02:00:01.767Z,28.30
2017-09-29T02:01:04.431Z,29.77
2017-09-29T02:02:07.662Z,27.67
2017-09-29T02:03:10.126Z,29.20
2017-09-29T02:04:12.605Z,29.98
2017-09-29T02:05:15.162Z,28.98
2017-09-29T02:06:17.651Z,29.35
2017-09-29T02:07:20.143Z,29.87
2017-09-29T02:08:22.689Z,28.17
2017-09-29T02:09:25.177Z,29.63
2017-09-29T02:10:27.747Z,29.55
2017-09-29T02:11:30.222Z,27.45
2017-09-29T02:12:32.694Z,28.77
2017-09-29T02:13:35.158Z,29.52
2017-09-29T02:14:37.618Z,28.38
2017-09-29T02:15:40.882Z,27.60
2017-09-29T02:16:43.402Z,29.80
2017-09-29T02:17:46.655Z,28.65
2017-09-29T02:18:49.131Z,28.90
2017-09-29T02:19:51.598Z,27.73
2017-09-29T02:20:54.068Z,27.37
2017-09-29T02:21:56.570Z,28.10
2017-09-29T02:22:59.041Z,29.50
2017-09-29T02:24:01.568Z,29.70
2017-09-29T02:25:04.131Z,28.45
2017-09-29T02:26:06.587Z,28.10
2017-09-29T02:27:09.141Z,28.45
2017-09-29T02:28:11.602Z,28.30
2017-09-29T02:29:14.137Z,27.98
2017-09-29T02:30:16.638Z,26.58
2017-09-29T02:31:20.030Z,29.73
2017-09-29T02:32:22.502Z,27.02
2017-09-29T02:33:25.776Z,29.55
2017-09-29T02:34:28.308Z,29.33
2017-09-29T02:35:30.772Z,28.67
2017-09-29T02:36:33.364Z,28.45
2017-09-29T02:37:35.828Z,28.10
2017-09-29T02:38:38.297Z,27.77
2017-09-29T02:39:40.779Z,28.48
2017-09-29T02:40:44.755Z,27.87
2017-09-29T02:41:47.223Z,28.10
2017-09-29T02:42:49.682Z,29.10
2017-09-29T02:43:52.931Z,28.55
2017-09-29T02:44:55.504Z,28.73
2017-09-29T02:45:58.038Z,27.05
2017-09-29T02:47:00.514Z,28.25
2017-09-29T02:49:20.902Z,28.50
2017-09-29T02:50:23.427Z,27.60
2017-09-29T02:51:25.921Z,28.58
2017-09-29T02:52:28.387Z,28.30
2017-09-29T02:53:30.856Z,28.00
2017-09-29T02:54:33.321Z,27.85
2017-09-29T02:55:35.810Z,27.90
2017-09-29T02:56:41.166Z,27.60
2017-09-29T02:57:46.962Z,29.02
2017-09-29T02:58:51.038Z,28.02
2017-09-29T02:59:55.088Z,27.45
2017-09-29T03:01:02.718Z,26.87
2017-09-29T03:02:06.277Z,26.70
2017-09-29T03:03:10.430Z,28.05
2017-09-29T03:04:14.771Z,28.45
2017-09-29T03:05:17.730Z,28.02
2017-09-29T03:06:20.243Z,28.95
2017-09-29T03:07:22.778Z,30.17
2017-09-29T03:08:25.246Z,27.08
2017-09-29T03:09:27.766Z,29.67
2017-09-29T03:10:30.312Z,28.58
2017-09-29T03:11:32.876Z,27.35
2017-09-29T03:12:35.391Z,27.15
2017-09-29T03:13:37.859Z,27.52
2017-09-29T03:14:41.138Z,27.45
2017-09-29T03:15:43.838Z,28.73
2017-09-29T03:16:47.153Z,28.23
2017-09-29T03:17:49.765Z,28.00
2017-09-29T03:18:52.260Z,27.58
2017-09-29T03:19:54.840Z,27.85
2017-09-29T03:20:57.317Z,28.85
2017-09-29T03:21:59.847Z,28.58
2017-09-29T03:23:02.316Z,27.75
2017-09-29T03:24:04.779Z,29.52
2017-09-29T03:25:07.254Z,29.55
2017-09-29T03:26:09.789Z,26.85
2017-09-29T03:27:12.366Z,28.23
2017-09-29T03:28:14.851Z,29.08
2017-09-29T03:29:17.330Z,29.10
2017-09-29T03:30:19.902Z,28.38
2017-09-29T03:31:23.226Z,28.60
2017-09-29T03:32:25.708Z,28.52
2017-09-29T03:33:28.268Z,28.10
2017-09-29T03:34:30.779Z,27.70
2017-09-29T03:35:33.244Z,28.30
2017-09-29T03:36:35.721Z,27.80
2017-09-29T03:37:38.177Z,27.17
2017-09-29T03:38:40.639Z,29.27
2017-09-29T03:39:44.022Z,29.37
2017-09-29T03:40:46.529Z,28.80
2017-09-29T03:41:49.097Z,29.17
2017-09-29T03:42:51.573Z,29.25
2017-09-29T03:43:54.053Z,26.33
2017-09-29T03:44:56.594Z,28.15
2017-09-29T03:45:59.056Z,28.30
2017-09-29T03:47:01.568Z,27.35
2017-09-29T03:48:04.069Z,28.87
2017-09-29T03:49:06.527Z,28.30
2017-09-29T03:50:09.712Z,28.10
2017-09-29T03:51:13.415Z,29.85
2017-09-29T03:52:19.034Z,29.75
2017-09-29T03:53:21.792Z,28.27
2017-09-29T03:54:25.421Z,29.58
2017-09-29T03:55:28.870Z,28.50
2017-09-29T03:56:32.641Z,27.98
2017-09-29T03:57:35.408Z,28.87
2017-09-29T03:58:38.854Z,27.20
2017-09-29T03:59:42.123Z,28.95
2017-09-29T04:00:44.620Z,28.00
2017-09-29T04:01:47.079Z,27.73
2017-09-29T04:02:49.595Z,27.50
2017-09-29T04:03:52.055Z,28.95
2017-09-29T04:04:54.539Z,29.60
2017-09-29T04:05:57.779Z,28.67
2017-09-29T04:07:00.307Z,28.12
2017-09-29T04:08:03.578Z,27.73
2017-09-29T04:09:06.039Z,29.10
2017-09-29T04:10:08.501Z,28.23
2017-09-29T04:11:11.723Z,28.33
2017-09-29T04:12:14.982Z,28.80
2017-09-29T04:13:18.948Z,28.95
2017-09-29T04:14:21.477Z,28.77
2017-09-29T04:15:23.965Z,27.85
2017-09-29T04:16:26.494Z,26.12
2017-09-29T04:17:29.150Z,27.60
2017-09-29T04:18:31.625Z,27.73
2017-09-29T04:19:34.105Z,27.85
2017-09-29T04:20:36.559Z,26.98
2017-09-29T04:21:39.144Z,28.80
2017-09-29T04:22:42.409Z,28.75
2017-09-29T04:23:44.887Z,28.02
2017-09-29T04:24:47.350Z,28.67
2017-09-29T04:25:49.840Z,27.08
2017-09-29T04:26:52.318Z,26.30
2017-09-29T04:27:54.791Z,27.37
2017-09-29T04:28:57.368Z,27.70
2017-09-29T04:29:59.869Z,26.77
2017-09-29T04:31:03.091Z,27.67
2017-09-29T04:32:06.330Z,26.45
2017-09-29T04:33:08.797Z,27.87
2017-09-29T04:34:11.330Z,27.37
2017-09-29T04:35:13.931Z,27.37
2017-09-29T04:36:16.396Z,27.55
2017-09-29T04:37:18.860Z,26.92
2017-09-29T04:38:22.136Z,27.67
2017-09-29T04:39:24.604Z,28.48
2017-09-29T04:40:27.102Z,26.70
2017-09-29T04:41:29.566Z,26.50
2017-09-29T04:42:32.043Z,26.85
2017-09-29T04:43:34.515Z,28.77
2017-09-29T04:44:36.979Z,27.33
2017-09-29T04:45:39.462Z,28.25
2017-09-29T04:46:41.978Z,26.08
2017-09-29T04:47:44.544Z,26.37
2017-09-29T04:48:47.779Z,27.65
2017-09-29T04:49:51.010Z,27.67
2017-09-29T04:50:53.523Z,27.20
2017-09-29T04:51:55.986Z,27.30
2017-09-29T04:52:58.488Z,27.50
2017-09-29T04:54:01.711Z,29.27
2017-09-29T04:55:04.278Z,27.87
2017-09-29T04:56:06.788Z,28.50
2017-09-29T04:57:10.063Z,27.65
2017-09-29T04:58:12.738Z,28.05
2017-09-29T04:59:15.621Z,27.00
2017-09-29T05:00:18.169Z,26.80
2017-09-29T05:01:20.774Z,28.77
2017-09-29T05:02:23.685Z,26.52
2017-09-29T05:03:26.916Z,27.85
2017-09-29T05:04:29.409Z,27.75
2017-09-29T05:05:31.888Z,28.02
2017-09-29T05:06:35.158Z,26.70
2017-09-29T05:07:37.621Z,27.85
2017-09-29T05:08:40.085Z,28.38
2017-09-29T05:09:42.551Z,28.17
2017-09-29T05:10:45.010Z,27.62
2017-09-29T05:11:48.268Z,26.33
2017-09-29T05:12:51.501Z,27.65
2017-09-29T05:13:54.747Z,28.08
2017-09-29T05:14:58.038Z,28.10
2017-09-29T05:16:00.980Z,27.13
2017-09-29T05:17:03.462Z,27.60
2017-09-29T05:18:05.978Z,28.02
2017-09-29T05:19:09.656Z,28.85
2017-09-29T05:20:12.241Z,27.48
2017-09-29T05:21:14.802Z,27.85
2017-09-29T05:22:17.279Z,28.90
2017-09-29T05:23:19.818Z,27.30
2017-09-29T05:24:23.198Z,28.27
2017-09-29T05:25:25.678Z,27.77
2017-09-29T05:26:28.246Z,28.30
2017-09-29T05:27:30.773Z,27.67
2017-09-29T05:28:33.230Z,28.55
2017-09-29T05:29:35.934Z,27.87
2017-09-29T05:30:38.462Z,27.05
2017-09-29T05:31:41.107Z,28.45
2017-09-29T05:32:43.576Z,28.00
2017-09-29T05:33:46.341Z,27.23
2017-09-29T05:34:48.844Z,27.55
2017-09-29T05:35:51.397Z,27.73
2017-09-29T05:36:53.890Z,28.17
2017-09-29T05:37:57.129Z,27.40
2017-09-29T05:38:59.679Z,27.45
2017-09-29T05:40:02.169Z,28.50
2017-09-29T05:41:04.654Z,26.58
2017-09-29T05:42:07.147Z,27.60
2017-09-29T05:43:10.400Z,28.00
2017-09-29T05:44:12.878Z,28.25
2017-09-29T05:45:15.409Z,29.70
2017-09-29T05:46:18.122Z,27.08
2017-09-29T05:47:20.591Z,27.92
2017-09-29T05:48:23.831Z,27.27
2017-09-29T05:49:27.070Z,27.50
2017-09-29T05:50:31.350Z,27.95
2017-09-29T05:51:34.619Z,26.60
2017-09-29T05:52:37.239Z,28.00
2017-09-29T05:53:39.721Z,27.50
2017-09-29T05:54:42.266Z,26.58
2017-09-29T05:55:45.560Z,27.10
2017-09-29T05:56:48.028Z,27.20
2017-09-29T05:57:51.245Z,26.87
2017-09-29T05:58:53.730Z,25.90
2017-09-29T05:59:56.230Z,26.95
2017-09-29T06:00:59.583Z,26.90
2017-09-29T06:02:02.032Z,27.80
2017-09-29T06:03:04.497Z,27.95
2017-09-29T06:04:06.962Z,25.70
2017-09-29T06:05:09.452Z,27.60
2017-09-29T06:06:12.722Z,25.90
2017-09-29T06:07:15.198Z,27.25
2017-09-29T06:08:17.759Z,27.37
2017-09-29T06:09:20.994Z,27.40
2017-09-29T06:10:24.228Z,27.58
2017-09-29T06:11:26.738Z,26.20
2017-09-29T06:12:29.219Z,27.95
2017-09-29T06:13:31.691Z,25.70
2017-09-29T06:14:34.166Z,28.17
2017-09-29T06:15:36.634Z,27.25
2017-09-29T06:16:39.166Z,26.20
2017-09-29T06:17:41.645Z,25.70
2017-09-29T06:18:44.118Z,25.20
2017-09-29T06:19:46.587Z,26.45
2017-09-29T06:20:49.160Z,26.25
2017-09-29T06:21:51.683Z,25.23
2017-09-29T06:22:54.187Z,25.67
2017-09-29T06:23:56.647Z,26.35
2017-09-29T06:24:59.125Z,26.92
2017-09-29T06:26:01.615Z,25.45
2017-09-29T06:27:04.876Z,24.98
2017-09-29T06:28:08.098Z,26.45
2017-09-29T06:29:11.355Z,25.10
2017-09-29T06:30:14.621Z,26.75
2017-09-29T06:31:17.086Z,26.08
2017-09-29T06:32:21.198Z,25.98
2017-09-29T06:33:23.667Z,25.12
2017-09-29T06:34:26.169Z,24.75
2017-09-29T06:35:28.632Z,26.67
2017-09-29T06:36:31.115Z,24.77
2017-09-29T06:37:33.630Z,25.92
2017-09-29T06:38:36.089Z,24.55
2017-09-29T06:39:38.698Z,24.83
2017-09-29T06:40:41.200Z,24.50
2017-09-29T06:41:44.368Z,25.33
2017-09-29T06:42:46.862Z,25.45
2017-09-29T06:43:49.347Z,25.70
2017-09-29T06:44:52.699Z,24.77
2017-09-29T06:45:55.186Z,23.98
2017-09-29T06:46:57.684Z,25.20
2017-09-29T06:48:00.261Z,25.58
2017-09-29T06:49:02.738Z,24.73
2017-09-29T06:50:05.205Z,24.90
2017-09-29T06:51:08.286Z,25.37
2017-09-29T06:52:11.554Z,25.17
2017-09-29T06:53:14.129Z,24.25
2017-09-29T06:54:16.666Z,26.52
2017-09-29T06:55:19.907Z,24.15
2017-09-29T06:56:22.613Z,23.67
2017-09-29T06:57:25.066Z,25.02
2017-09-29T06:58:28.303Z,24.40
2017-09-29T06:59:32.389Z,24.60
2017-09-29T07:00:35.684Z,23.65
2017-09-29T07:01:38.154Z,24.63
2017-09-29T07:02:41.413Z,25.00
2017-09-29T07:03:43.899Z,23.58
2017-09-29T07:04:46.396Z,23.85
2017-09-29T07:05:48.880Z,24.37
2017-09-29T07:06:51.378Z,22.45
2017-09-29T07:07:53.850Z,22.45
2017-09-29T07:08:56.321Z,23.73
2017-09-29T07:09:58.818Z,22.55
2017-09-29T07:11:01.306Z,24.20
2017-09-29T07:12:03.894Z,22.92
2017-09-29T07:13:06.456Z,22.67
2017-09-29T07:14:09.798Z,23.77
2017-09-29T07:15:13.041Z,23.17
2017-09-29T07:16:16.273Z,23.73
2017-09-29T07:17:19.525Z,23.75
2017-09-29T07:18:22.879Z,23.45
2017-09-29T07:19:25.383Z,22.80
2017-09-29T07:20:28.633Z,22.90
2017-09-29T07:21:31.862Z,23.35
2017-09-29T07:22:35.098Z,23.50
2017-09-29T07:23:37.576Z,23.80
2017-09-29T07:24:42.563Z,22.73
2017-09-29T07:25:46.144Z,22.58
2017-09-29T07:26:52.374Z,21.62
2017-09-29T07:27:56.687Z,20.37
2017-09-29T07:29:00.069Z,20.98
2017-09-29T07:30:02.910Z,20.65
2017-09-29T07:31:05.677Z,20.65
2017-09-29T07:32:09.103Z,20.48
2017-09-29T07:33:12.339Z,19.58
2017-09-29T07:34:15.566Z,20.17
2017-09-29T07:35:18.126Z,20.42
2017-09-29T07:36:20.594Z,19.40
2017-09-29T07:37:23.108Z,20.30
2017-09-29T07:38:25.571Z,20.67
2017-09-29T07:39:28.062Z,19.48
2017-09-29T07:40:30.543Z,21.73
2017-09-29T07:41:33.797Z,20.17
2017-09-29T07:42:36.266Z,20.70
2017-09-29T07:43:39.478Z,19.15
2017-09-29T07:44:41.966Z,19.77
2017-09-29T07:45:45.212Z,18.20
2017-09-29T07:46:48.452Z,20.27
2017-09-29T07:47:51.682Z,19.30
2017-09-29T07:48:54.156Z,18.30
2017-09-29T07:49:56.637Z,19.60
2017-09-29T07:50:59.097Z,20.25
2017-09-29T07:52:01.593Z,19.30
2017-09-29T07:53:04.858Z,21.17
2017-09-29T07:54:08.152Z,19.85
2017-09-29T07:55:10.738Z,18.75
2017-09-29T07:56:13.247Z,20.40
2017-09-29T07:57:16.490Z,19.65
2017-09-29T07:58:18.970Z,18.90
2017-09-29T07:59:21.454Z,19.02
2017-09-29T08:00:23.986Z,18.87
2017-09-29T08:01:26.498Z,19.12
2017-09-29T08:02:28.964Z,18.23
2017-09-29T08:03:31.463Z,19.08
2017-09-29T08:04:33.943Z,17.45
2017-09-29T08:05:36.404Z,18.12
2017-09-29T08:06:38.874Z,20.23
2017-09-29T08:07:41.339Z,18.58
2017-09-29T08:08:44.612Z,18.98
2017-09-29T08:09:47.084Z,18.67
2017-09-29T08:10:49.636Z,18.40
2017-09-29T08:11:52.858Z,19.25
2017-09-29T08:12:56.084Z,18.70
2017-09-29T08:13:58.598Z,19.20
2017-09-29T08:15:01.066Z,18.90
2017-09-29T08:16:04.328Z,18.85
2017-09-29T08:17:06.847Z,18.87
2017-09-29T08:18:09.334Z,18.85
2017-09-29T08:19:11.791Z,19.98
2017-09-29T08:20:14.363Z,18.85
2017-09-29T08:21:16.820Z,19.08
2017-09-29T08:22:20.059Z,18.05
2017-09-29T08:23:23.431Z,18.52
2017-09-29T08:24:25.910Z,19.15
2017-09-29T08:25:28.367Z,18.42
2017-09-29T08:26:31.610Z,17.55
2017-09-29T08:27:34.862Z,18.67
2017-09-29T08:28:38.118Z,17.50
2017-09-29T08:29:40.590Z,17.85
2017-09-29T08:30:43.054Z,18.02
2017-09-29T08:31:45.527Z,17.23
2017-09-29T08:32:47.990Z,16.67
2017-09-29T08:33:51.259Z,17.05
2017-09-29T08:34:53.732Z,16.98
2017-09-29T08:35:57.011Z,19.17
2017-09-29T08:37:00.279Z,17.40
2017-09-29T08:38:02.755Z,18.02
2017-09-29T08:39:05.239Z,17.33
2017-09-29T08:40:07.778Z,18.58
2017-09-29T08:41:10.242Z,18.33
2017-09-29T08:42:13.476Z,18.12
2017-09-29T08:43:16.790Z,18.62
2017-09-29T08:44:19.374Z,18.80
2017-09-29T08:45:21.854Z,17.55
2017-09-29T08:46:24.332Z,18.35
2017-09-29T08:47:26.839Z,17.83
2017-09-29T08:48:30.071Z,18.25
2017-09-29T08:49:33.421Z,18.98
2017-09-29T08:50:36.704Z,19.35
2017-09-29T08:51:39.146Z,17.87
2017-09-29T08:52:41.726Z,18.35
2017-09-29T08:53:44.235Z,19.25
2017-09-29T08:54:47.558Z,17.95
2017-09-29T08:55:50.046Z,19.37
2017-09-29T08:56:52.507Z,18.58
2017-09-29T08:57:55.075Z,18.95
2017-09-29T08:58:57.554Z,18.25
2017-09-29T09:00:00.839Z,19.00
2017-09-29T09:01:03.352Z,18.70
2017-09-29T09:02:06.574Z,19.30
2017-09-29T09:03:09.850Z,17.87
2017-09-29T09:04:12.322Z,20.08
2017-09-29T09:05:14.833Z,18.37
2017-09-29T09:06:17.297Z,19.75
2017-09-29T09:07:19.760Z,18.25
2017-09-29T09:08:22.310Z,17.50
2017-09-29T09:09:24.751Z,18.33
2017-09-29T09:10:27.310Z,18.27
2017-09-29T09:11:30.542Z,19.12
2017-09-29T09:12:33.006Z,18.17
2017-09-29T09:13:35.471Z,19.08
2017-09-29T09:14:37.937Z,19.05
2017-09-29T09:15:41.216Z,17.90
2017-09-29T09:16:43.693Z,18.67
2017-09-29T09:17:46.961Z,18.50
2017-09-29T09:18:49.528Z,19.05
2017-09-29T09:19:51.991Z,17.65
2017-09-29T09:20:55.238Z,18.48
2017-09-29T09:21:58.472Z,18.60
2017-09-29T09:23:01.714Z,19.65
2017-09-29T09:24:04.952Z,17.92
2017-09-29T09:25:08.207Z,18.05
2017-09-29T09:26:11.474Z,17.90
2017-09-29T09:27:13.950Z,18.15
2017-09-29T09:28:16.419Z,19.15
2017-09-29T09:29:18.885Z,18.48
2017-09-29T09:30:21.349Z,18.58
2017-09-29T09:31:24.612Z,18.10
2017-09-29T09:32:27.122Z,17.87
2017-09-29T09:33:30.358Z,18.12
2017-09-29T09:34:33.614Z,17.02
2017-09-29T09:35:36.089Z,17.87
2017-09-29T09:36:38.571Z,18.00
2017-09-29T09:37:46.940Z,17.40
2017-09-29T09:38:49.402Z,16.80
2017-09-29T09:39:51.987Z,16.95
2017-09-29T09:40:54.510Z,19.30
2017-09-29T09:41:57.050Z,19.35
2017-09-29T09:42:59.595Z,18.42
2017-09-29T09:44:02.066Z,18.27
2017-09-29T09:45:05.289Z,18.08
2017-09-29T09:46:07.837Z,18.73
2017-09-29T09:47:11.093Z,17.45
2017-09-29T09:48:13.580Z,17.37
2017-09-29T09:49:16.047Z,19.35
2017-09-29T09:50:18.514Z,18.25
2017-09-29T09:51:21.070Z,17.83
2017-09-29T09:52:24.309Z,17.40
2017-09-29T09:53:27.565Z,18.33
2017-09-29T09:54:30.028Z,18.62
2017-09-29T09:55:32.499Z,17.23
2017-09-29T09:56:35.774Z,17.77
2017-09-29T09:57:38.300Z,18.42
2017-09-29T09:58:40.815Z,17.52
2017-09-29T09:59:43.347Z,17.98
2017-09-29T10:00:45.802Z,18.40
2017-09-29T10:01:48.299Z,18.92
2017-09-29T10:02:50.786Z,18.95
2017-09-29T10:03:53.271Z,18.42
2017-09-29T10:04:55.777Z,17.80
2017-09-29T10:05:58.341Z,17.95
2017-09-29T10:07:00.850Z,18.20
2017-09-29T10:08:04.024Z,18.35
2017-09-29T10:10:15.539Z,18.52
2017-09-29T10:11:18.779Z,18.25
2017-09-29T10:12:22.021Z,17.45
2017-09-29T10:13:25.326Z,16.90
2017-09-29T10:14:27.815Z,17.70
2017-09-29T10:15:30.292Z,16.80
2017-09-29T10:16:32.766Z,18.00
2017-09-29T10:17:35.241Z,17.55
2017-09-29T10:18:37.716Z,16.40
2017-09-29T10:19:40.207Z,16.17
2017-09-29T10:20:42.779Z,17.85
2017-09-29T10:21:45.247Z,17.92
2017-09-29T10:22:47.714Z,17.12
2017-09-29T10:23:50.164Z,16.95
2017-09-29T10:24:52.652Z,16.85
2017-09-29T10:25:55.909Z,17.20
2017-09-29T10:26:58.382Z,16.62
2017-09-29T10:28:00.866Z,17.30
2017-09-29T10:29:03.326Z,16.58
2017-09-29T10:30:05.803Z,17.23
2017-09-29T10:31:08.313Z,17.15
2017-09-29T10:32:11.546Z,18.83
2017-09-29T10:33:14.786Z,16.95
2017-09-29T10:34:18.061Z,17.73
2017-09-29T10:35:20.584Z,17.00
2017-09-29T10:36:23.928Z,17.95
2017-09-29T10:37:26.395Z,17.60
2017-09-29T10:38:28.866Z,17.45
2017-09-29T10:39:32.120Z,17.40
2017-09-29T10:40:34.594Z,16.80
2017-09-29T10:41:37.082Z,17.73
2017-09-29T10:42:39.558Z,17.48
2017-09-29T10:43:42.025Z,17.70
2017-09-29T10:44:44.495Z,16.62
2017-09-29T10:45:46.963Z,17.00
2017-09-29T10:46:50.214Z,17.12
2017-09-29T10:47:52.682Z,17.27
2017-09-29T10:48:56.044Z,16.83
2017-09-29T10:49:58.532Z,16.92
2017-09-29T10:51:00.997Z,17.05
2017-09-29T10:52:03.617Z,17.23
2017-09-29T10:53:06.082Z,16.10
2017-09-29T10:54:08.568Z,15.27
2017-09-29T10:55:11.045Z,16.85
2017-09-29T10:56:13.520Z,16.83
2017-09-29T10:57:16.087Z,15.60
2017-09-29T10:58:18.743Z,16.70
2017-09-29T10:59:21.218Z,15.90
2017-09-29T11:00:24.465Z,15.80
2017-09-29T11:01:27.722Z,16.52
2017-09-29T11:02:30.222Z,16.35
2017-09-29T11:03:33.464Z,16.58
2017-09-29T11:04:35.919Z,16.67
2017-09-29T11:05:38.438Z,16.35
2017-09-29T11:06:40.958Z,16.42
2017-09-29T11:07:44.207Z,15.90
2017-09-29T11:08:47.033Z,16.15
2017-09-29T11:09:50.330Z,16.23
2017-09-29T11:10:52.802Z,15.38
2017-09-29T11:11:56.062Z,16.75
2017-09-29T11:12:58.566Z,16.95
2017-09-29T11:14:01.044Z,15.98
2017-09-29T11:15:03.574Z,16.60
2017-09-29T11:16:06.830Z,16.37
2017-09-29T11:17:09.340Z,16.55
2017-09-29T11:18:11.799Z,16.20
2017-09-29T11:19:15.109Z,16.65
2017-09-29T11:20:17.634Z,16.40
2017-09-29T11:21:20.101Z,16.35
2017-09-29T11:22:23.394Z,16.40
2017-09-29T11:23:25.910Z,16.92
2017-09-29T11:24:28.403Z,17.08
2017-09-29T11:25:31.631Z,16.42
2017-09-29T11:26:34.887Z,16.75
2017-09-29T11:27:37.351Z,16.55
2017-09-29T11:28:39.816Z,16.00
2017-09-29T11:29:43.204Z,16.52
2017-09-29T11:30:45.711Z,16.58
2017-09-29T11:31:48.162Z,15.73
2017-09-29T11:32:50.618Z,16.65
2017-09-29T11:33:53.123Z,16.40
2017-09-29T11:34:55.660Z,17.42
2017-09-29T11:35:58.244Z,15.55
2017-09-29T11:37:00.738Z,17.23
2017-09-29T11:38:03.792Z,16.02
2017-09-29T11:39:07.074Z,17.02
2017-09-29T11:40:09.587Z,17.17
2017-09-29T11:41:12.147Z,16.75
2017-09-29T11:42:14.617Z,17.08
2017-09-29T11:43:17.852Z,16.00
2017-09-29T11:44:21.112Z,17.50
2017-09-29T11:45:23.609Z,17.62
2017-09-29T11:46:26.093Z,15.93
2017-09-29T11:47:28.584Z,16.52
2017-09-29T11:48:32.141Z,16.55
2017-09-29T11:49:34.631Z,16.60
2017-09-29T11:50:37.863Z,15.93
2017-09-29T11:51:40.354Z,18.08
2017-09-29T11:52:42.833Z,18.15
2017-09-29T11:53:46.067Z,17.40
2017-09-29T11:54:49.330Z,16.92
2017-09-29T11:55:52.579Z,17.73
2017-09-29T11:56:55.057Z,17.92
2017-09-29T11:57:57.543Z,17.98
2017-09-29T11:59:00.024Z,17.75
2017-09-29T12:00:02.517Z,17.65
2017-09-29T12:01:05.011Z,16.90
2017-09-29T12:02:07.507Z,18.60
2017-09-29T12:03:09.982Z,17.62
2017-09-29T12:04:12.439Z,19.05
2017-09-29T12:05:14.945Z,17.67
2017-09-29T12:06:17.538Z,18.25
2017-09-29T12:07:20.068Z,18.67
2017-09-29T12:08:22.570Z,17.60
2017-09-29T12:09:25.852Z,18.42
2017-09-29T12:10:28.338Z,17.42
2017-09-29T12:11:31.585Z,17.58
2017-09-29T12:12:34.069Z,18.05
2017-09-29T12:13:36.572Z,17.90
2017-09-29T12:14:39.027Z,17.75
2017-09-29T12:15:41.498Z,17.85
2017-09-29T12:16:44.017Z,17.85
2017-09-29T12:17:46.599Z,18.05
2017-09-29T12:18:49.143Z,17.45
2017-09-29T12:19:52.414Z,17.55
2017-09-29T12:20:54.902Z,18.23
2017-09-29T12:21:57.391Z,18.50
2017-09-29T12:22:59.851Z,18.42
2017-09-29T12:24:02.353Z,17.70
2017-09-29T12:25:04.852Z,17.92
2017-09-29T12:26:07.334Z,17.48
2017-09-29T12:27:10.554Z,16.90
2017-09-29T12:28:13.016Z,15.90
2017-09-29T12:29:16.382Z,18.08
2017-09-29T12:30:18.898Z,16.40
2017-09-29T12:31:21.358Z,16.23
2017-09-29T12:32:23.890Z,16.10
2017-09-29T12:33:26.365Z,16.42
2017-09-29T12:34:29.627Z,17.20
2017-09-29T12:35:32.145Z,16.80
2017-09-29T12:36:34.677Z,16.52
2017-09-29T12:37:37.146Z,16.85
2017-09-29T12:38:39.626Z,17.15
2017-09-29T12:39:42.242Z,15.85
2017-09-29T12:40:44.734Z,16.35
2017-09-29T12:41:47.307Z,16.30
2017-09-29T12:42:49.813Z,15.93
2017-09-29T12:43:53.034Z,16.58
2017-09-29T12:44:55.513Z,16.10
2017-09-29T12:45:57.995Z,15.85
2017-09-29T12:47:01.918Z,15.85
2017-09-29T12:48:04.392Z,16.48
2017-09-29T12:49:07.639Z,16.80
2017-09-29T12:50:10.151Z,16.40
2017-09-29T12:51:13.409Z,15.60
2017-09-29T12:52:15.888Z,15.68
2017-09-29T12:53:18.901Z,15.93
2017-09-29T12:54:21.371Z,17.17
2017-09-29T12:55:24.643Z,15.20
2017-09-29T12:56:27.117Z,15.95
2017-09-29T12:57:29.601Z,16.60
2017-09-29T12:58:32.061Z,17.05
2017-09-29T12:59:34.657Z,16.65
2017-09-29T13:00:37.128Z,15.85
2017-09-29T13:01:39.651Z,15.38
2017-09-29T13:02:42.151Z,15.38
2017-09-29T13:03:44.655Z,15.40
2017-09-29T13:04:47.996Z,15.95
2017-09-29T13:05:50.510Z,16.02
2017-09-29T13:06:52.970Z,15.98
2017-09-29T13:07:55.566Z,14.73
2017-09-29T13:08:58.035Z,15.60
2017-09-29T13:10:00.534Z,15.80
2017-09-29T13:11:03.024Z,16.30
2017-09-29T13:12:06.277Z,16.12
2017-09-29T13:13:08.779Z,16.30
2017-09-29T13:14:11.246Z,15.55
2017-09-29T13:15:13.818Z,16.02
2017-09-29T13:16:16.278Z,16.42
2017-09-29T13:17:18.854Z,16.27
2017-09-29T13:18:21.340Z,15.93
2017-09-29T13:19:23.887Z,15.05
2017-09-29T13:20:26.347Z,15.27
2017-09-29T13:21:29.578Z,15.50
2017-09-29T13:22:32.042Z,15.88
2017-09-29T13:23:35.288Z,15.35
2017-09-29T13:24:38.513Z,16.35
2017-09-29T13:25:41.116Z,15.20
2017-09-29T13:26:43.578Z,15.70
2017-09-29T13:27:46.038Z,15.63
2017-09-29T13:28:48.502Z,15.20
2017-09-29T13:29:50.972Z,15.55
2017-09-29T13:30:53.458Z,16.10